sensor_id;sensor_type;location;lat;lon;timestamp;P1;durP1;ratioP1;P2;durP2;ratioP2
53654;SDS011;39558;52.028;8.536;2023-11-19T00:01:49;1.75;;;1.10;;
53654;SDS011;39558;52.028;8.536;2023-11-19T00:04:15;1.92;;;1.27;;
53654;SDS011;39558;52.028;8.536;2023-11-19T00:06:41;2.67;;;1.45;;
53654;SDS011;39558;52.028;8.536;2023-11-19T00:09:07;2.97;;;1.67;;
53654;SDS011;39558;52.028;8.536;2023-11-19T00:11:33;2.03;;;1.30;;
53654;SDS011;39558;52.028;8.536;2023-11-19T00:13:59;1.67;;;1.00;;
53654;SDS011;39558;52.028;8.536;2023-11-19T00:16:24;1.30;;;0.88;;
53654;SDS011;39558;52.028;8.536;2023-11-19T00:18:50;2.35;;;1.15;;
53654;SDS011;39558;52.028;8.536;2023-11-19T00:21:17;2.50;;;1.02;;
53654;SDS011;39558;52.028;8.536;2023-11-19T00:23:42;2.45;;;1.40;;
53654;SDS011;39558;52.028;8.536;2023-11-19T00:26:08;2.20;;;1.10;;
53654;SDS011;39558;52.028;8.536;2023-11-19T00:28:34;2.05;;;1.17;;
53654;SDS011;39558;52.028;8.536;2023-11-19T00:31:03;2.85;;;1.20;;
53654;SDS011;39558;52.028;8.536;2023-11-19T00:33:29;2.10;;;1.08;;
53654;SDS011;39558;52.028;8.536;2023-11-19T00:35:56;2.60;;;1.10;;
53654;SDS011;39558;52.028;8.536;2023-11-19T00:38:22;2.20;;;1.23;;
53654;SDS011;39558;52.028;8.536;2023-11-19T00:40:47;3.47;;;1.30;;
53654;SDS011;39558;52.028;8.536;2023-11-19T00:43:13;1.95;;;1.13;;
53654;SDS011;39558;52.028;8.536;2023-11-19T00:45:39;2.58;;;1.27;;
53654;SDS011;39558;52.028;8.536;2023-11-19T00:48:05;2.47;;;1.23;;
53654;SDS011;39558;52.028;8.536;2023-11-19T00:50:31;2.08;;;1.17;;
53654;SDS011;39558;52.028;8.536;2023-11-19T00:52:57;2.92;;;1.15;;
53654;SDS011;39558;52.028;8.536;2023-11-19T00:55:23;2.10;;;1.20;;
53654;SDS011;39558;52.028;8.536;2023-11-19T00:57:49;2.60;;;1.05;;
53654;SDS011;39558;52.028;8.536;2023-11-19T01:00:15;2.10;;;1.10;;
53654;SDS011;39558;52.028;8.536;2023-11-19T01:02:45;2.50;;;1.20;;
53654;SDS011;39558;52.028;8.536;2023-11-19T01:05:10;1.98;;;1.05;;
53654;SDS011;39558;52.028;8.536;2023-11-19T01:07:39;2.38;;;1.38;;
53654;SDS011;39558;52.028;8.536;2023-11-19T01:10:05;2.45;;;1.08;;
53654;SDS011;39558;52.028;8.536;2023-11-19T01:12:33;1.75;;;1.00;;
53654;SDS011;39558;52.028;8.536;2023-11-19T01:14:59;1.92;;;1.15;;
53654;SDS011;39558;52.028;8.536;2023-11-19T01:17:25;1.88;;;1.17;;
53654;SDS011;39558;52.028;8.536;2023-11-19T01:19:51;2.40;;;1.20;;
53654;SDS011;39558;52.028;8.536;2023-11-19T01:22:17;1.65;;;0.88;;
53654;SDS011;39558;52.028;8.536;2023-11-19T01:24:44;2.13;;;0.93;;
53654;SDS011;39558;52.028;8.536;2023-11-19T01:27:09;1.50;;;0.85;;
53654;SDS011;39558;52.028;8.536;2023-11-19T01:29:35;2.33;;;1.20;;
53654;SDS011;39558;52.028;8.536;2023-11-19T01:32:03;3.33;;;1.30;;
53654;SDS011;39558;52.028;8.536;2023-11-19T01:34:29;2.70;;;1.55;;
53654;SDS011;39558;52.028;8.536;2023-11-19T01:36:55;2.75;;;1.33;;
53654;SDS011;39558;52.028;8.536;2023-11-19T01:39:20;3.67;;;1.13;;
53654;SDS011;39558;52.028;8.536;2023-11-19T01:41:47;2.45;;;1.00;;
53654;SDS011;39558;52.028;8.536;2023-11-19T01:44:12;2.38;;;1.27;;
53654;SDS011;39558;52.028;8.536;2023-11-19T01:46:40;2.03;;;1.33;;
53654;SDS011;39558;52.028;8.536;2023-11-19T01:49:06;2.10;;;1.08;;
53654;SDS011;39558;52.028;8.536;2023-11-19T01:51:33;2.50;;;1.15;;
53654;SDS011;39558;52.028;8.536;2023-11-19T01:53:59;1.75;;;0.93;;
53654;SDS011;39558;52.028;8.536;2023-11-19T01:56:25;2.40;;;1.30;;
53654;SDS011;39558;52.028;8.536;2023-11-19T01:58:52;2.08;;;1.10;;
53654;SDS011;39558;52.028;8.536;2023-11-19T02:01:19;2.38;;;1.38;;
53654;SDS011;39558;52.028;8.536;2023-11-19T02:03:45;1.65;;;0.93;;
53654;SDS011;39558;52.028;8.536;2023-11-19T02:06:12;1.55;;;0.88;;
53654;SDS011;39558;52.028;8.536;2023-11-19T02:08:38;1.63;;;0.98;;
53654;SDS011;39558;52.028;8.536;2023-11-19T02:11:04;2.50;;;1.13;;
53654;SDS011;39558;52.028;8.536;2023-11-19T02:13:31;2.05;;;0.82;;
53654;SDS011;39558;52.028;8.536;2023-11-19T02:15:57;2.75;;;1.20;;
53654;SDS011;39558;52.028;8.536;2023-11-19T02:18:24;3.17;;;1.25;;
53654;SDS011;39558;52.028;8.536;2023-11-19T02:20:52;2.35;;;0.90;;
53654;SDS011;39558;52.028;8.536;2023-11-19T02:23:19;2.90;;;1.10;;
53654;SDS011;39558;52.028;8.536;2023-11-19T02:28:23;2.10;;;1.17;;
53654;SDS011;39558;52.028;8.536;2023-11-19T02:30:49;2.88;;;1.10;;
53654;SDS011;39558;52.028;8.536;2023-11-19T02:33:15;2.10;;;1.00;;
53654;SDS011;39558;52.028;8.536;2023-11-19T02:35:41;2.63;;;1.20;;
53654;SDS011;39558;52.028;8.536;2023-11-19T02:38:06;1.77;;;0.90;;
53654;SDS011;39558;52.028;8.536;2023-11-19T02:40:33;2.35;;;1.20;;
53654;SDS011;39558;52.028;8.536;2023-11-19T02:42:59;1.92;;;1.00;;
53654;SDS011;39558;52.028;8.536;2023-11-19T02:45:25;2.58;;;1.35;;
53654;SDS011;39558;52.028;8.536;2023-11-19T02:47:51;2.03;;;1.08;;
53654;SDS011;39558;52.028;8.536;2023-11-19T02:50:18;3.00;;;1.50;;
53654;SDS011;39558;52.028;8.536;2023-11-19T02:52:50;1.67;;;1.13;;
53654;SDS011;39558;52.028;8.536;2023-11-19T02:55:16;1.73;;;1.10;;
53654;SDS011;39558;52.028;8.536;2023-11-19T02:57:43;2.35;;;1.10;;
53654;SDS011;39558;52.028;8.536;2023-11-19T03:02:40;1.95;;;1.00;;
53654;SDS011;39558;52.028;8.536;2023-11-19T03:07:36;3.17;;;1.02;;
53654;SDS011;39558;52.028;8.536;2023-11-19T03:10:02;1.23;;;0.70;;
53654;SDS011;39558;52.028;8.536;2023-11-19T03:12:30;1.35;;;0.90;;
53654;SDS011;39558;52.028;8.536;2023-11-19T03:14:56;2.60;;;0.98;;
53654;SDS011;39558;52.028;8.536;2023-11-19T03:17:22;2.25;;;1.13;;
53654;SDS011;39558;52.028;8.536;2023-11-19T03:19:49;2.40;;;1.00;;
53654;SDS011;39558;52.028;8.536;2023-11-19T03:22:15;1.30;;;0.80;;
53654;SDS011;39558;52.028;8.536;2023-11-19T03:24:41;2.03;;;1.25;;
53654;SDS011;39558;52.028;8.536;2023-11-19T03:27:06;2.20;;;1.02;;
53654;SDS011;39558;52.028;8.536;2023-11-19T03:29:32;1.95;;;0.98;;
53654;SDS011;39558;52.028;8.536;2023-11-19T03:31:58;2.17;;;1.25;;
53654;SDS011;39558;52.028;8.536;2023-11-19T03:34:24;1.92;;;1.00;;
53654;SDS011;39558;52.028;8.536;2023-11-19T03:36:50;2.38;;;1.10;;
53654;SDS011;39558;52.028;8.536;2023-11-19T03:39:16;1.80;;;1.00;;
53654;SDS011;39558;52.028;8.536;2023-11-19T03:41:41;1.88;;;0.82;;
53654;SDS011;39558;52.028;8.536;2023-11-19T03:44:12;2.30;;;1.20;;
53654;SDS011;39558;52.028;8.536;2023-11-19T03:46:37;2.42;;;1.05;;
53654;SDS011;39558;52.028;8.536;2023-11-19T03:49:03;2.22;;;1.17;;
53654;SDS011;39558;52.028;8.536;2023-11-19T03:51:31;3.55;;;0.95;;
53654;SDS011;39558;52.028;8.536;2023-11-19T03:53:57;2.33;;;1.00;;
53654;SDS011;39558;52.028;8.536;2023-11-19T03:56:24;1.98;;;1.08;;
53654;SDS011;39558;52.028;8.536;2023-11-19T03:58:50;2.25;;;0.90;;
53654;SDS011;39558;52.028;8.536;2023-11-19T04:01:17;1.90;;;0.93;;
53654;SDS011;39558;52.028;8.536;2023-11-19T04:03:42;1.60;;;0.90;;
53654;SDS011;39558;52.028;8.536;2023-11-19T04:06:09;1.58;;;0.80;;
53654;SDS011;39558;52.028;8.536;2023-11-19T04:08:35;1.95;;;1.10;;
53654;SDS011;39558;52.028;8.536;2023-11-19T04:11:02;1.73;;;0.82;;
53654;SDS011;39558;52.028;8.536;2023-11-19T04:13:28;2.05;;;1.20;;
53654;SDS011;39558;52.028;8.536;2023-11-19T04:15:54;1.67;;;1.00;;
53654;SDS011;39558;52.028;8.536;2023-11-19T04:18:20;2.78;;;1.35;;
53654;SDS011;39558;52.028;8.536;2023-11-19T04:20:46;3.47;;;0.73;;
53654;SDS011;39558;52.028;8.536;2023-11-19T04:23:12;1.52;;;0.90;;
53654;SDS011;39558;52.028;8.536;2023-11-19T04:25:37;1.60;;;0.93;;
53654;SDS011;39558;52.028;8.536;2023-11-19T04:28:03;1.33;;;0.80;;
53654;SDS011;39558;52.028;8.536;2023-11-19T04:30:29;3.03;;;0.95;;
53654;SDS011;39558;52.028;8.536;2023-11-19T04:32:56;1.40;;;0.90;;
53654;SDS011;39558;52.028;8.536;2023-11-19T04:35:22;1.50;;;0.70;;
53654;SDS011;39558;52.028;8.536;2023-11-19T04:37:48;1.75;;;1.02;;
53654;SDS011;39558;52.028;8.536;2023-11-19T04:40:14;2.13;;;0.73;;
53654;SDS011;39558;52.028;8.536;2023-11-19T04:42:40;1.25;;;0.60;;
53654;SDS011;39558;52.028;8.536;2023-11-19T04:45:06;2.00;;;0.90;;
53654;SDS011;39558;52.028;8.536;2023-11-19T04:47:35;2.10;;;1.00;;
53654;SDS011;39558;52.028;8.536;2023-11-19T04:50:01;1.27;;;0.90;;
53654;SDS011;39558;52.028;8.536;2023-11-19T04:52:27;1.73;;;0.73;;
53654;SDS011;39558;52.028;8.536;2023-11-19T04:54:52;2.08;;;0.88;;
53654;SDS011;39558;52.028;8.536;2023-11-19T04:57:18;2.28;;;0.90;;
53654;SDS011;39558;52.028;8.536;2023-11-19T04:59:44;1.55;;;0.95;;
53654;SDS011;39558;52.028;8.536;2023-11-19T05:02:10;2.20;;;1.00;;
53654;SDS011;39558;52.028;8.536;2023-11-19T05:04:36;1.33;;;0.80;;
53654;SDS011;39558;52.028;8.536;2023-11-19T05:07:04;3.45;;;1.25;;
53654;SDS011;39558;52.028;8.536;2023-11-19T05:09:32;1.92;;;0.75;;
53654;SDS011;39558;52.028;8.536;2023-11-19T05:11:57;1.40;;;0.77;;
53654;SDS011;39558;52.028;8.536;2023-11-19T05:14:23;2.17;;;1.10;;
53654;SDS011;39558;52.028;8.536;2023-11-19T05:16:49;1.05;;;0.73;;
53654;SDS011;39558;52.028;8.536;2023-11-19T05:19:15;1.25;;;0.70;;
53654;SDS011;39558;52.028;8.536;2023-11-19T05:21:42;1.73;;;0.90;;
53654;SDS011;39558;52.028;8.536;2023-11-19T05:24:08;1.00;;;0.60;;
53654;SDS011;39558;52.028;8.536;2023-11-19T05:26:34;2.67;;;1.10;;
53654;SDS011;39558;52.028;8.536;2023-11-19T05:29:00;1.73;;;0.75;;
53654;SDS011;39558;52.028;8.536;2023-11-19T05:31:26;1.35;;;0.70;;
53654;SDS011;39558;52.028;8.536;2023-11-19T05:33:52;2.40;;;1.00;;
53654;SDS011;39558;52.028;8.536;2023-11-19T05:36:18;2.53;;;1.10;;
53654;SDS011;39558;52.028;8.536;2023-11-19T05:38:43;2.35;;;1.27;;
53654;SDS011;39558;52.028;8.536;2023-11-19T05:41:09;1.55;;;0.95;;
53654;SDS011;39558;52.028;8.536;2023-11-19T05:43:35;1.67;;;0.90;;
53654;SDS011;39558;52.028;8.536;2023-11-19T05:46:02;1.02;;;0.65;;
53654;SDS011;39558;52.028;8.536;2023-11-19T05:48:28;1.77;;;0.75;;
53654;SDS011;39558;52.028;8.536;2023-11-19T05:50:54;1.83;;;0.85;;
53654;SDS011;39558;52.028;8.536;2023-11-19T05:53:20;1.38;;;0.75;;
53654;SDS011;39558;52.028;8.536;2023-11-19T05:55:46;1.80;;;0.98;;
53654;SDS011;39558;52.028;8.536;2023-11-19T05:58:19;1.42;;;0.73;;
53654;SDS011;39558;52.028;8.536;2023-11-19T06:00:46;1.55;;;0.70;;
53654;SDS011;39558;52.028;8.536;2023-11-19T06:03:12;1.55;;;0.70;;
53654;SDS011;39558;52.028;8.536;2023-11-19T06:05:38;1.83;;;1.00;;
53654;SDS011;39558;52.028;8.536;2023-11-19T06:08:04;1.55;;;0.70;;
53654;SDS011;39558;52.028;8.536;2023-11-19T06:10:31;1.08;;;0.60;;
53654;SDS011;39558;52.028;8.536;2023-11-19T06:13:00;2.08;;;0.85;;
53654;SDS011;39558;52.028;8.536;2023-11-19T06:15:29;1.30;;;0.70;;
53654;SDS011;39558;52.028;8.536;2023-11-19T06:17:56;1.55;;;0.70;;
53654;SDS011;39558;52.028;8.536;2023-11-19T06:20:25;1.27;;;0.85;;
53654;SDS011;39558;52.028;8.536;2023-11-19T06:22:53;1.15;;;0.65;;
53654;SDS011;39558;52.028;8.536;2023-11-19T06:25:19;1.55;;;0.77;;
53654;SDS011;39558;52.028;8.536;2023-11-19T06:27:45;1.67;;;0.98;;
53654;SDS011;39558;52.028;8.536;2023-11-19T06:30:11;3.35;;;0.75;;
53654;SDS011;39558;52.028;8.536;2023-11-19T06:32:37;1.85;;;0.70;;
53654;SDS011;39558;52.028;8.536;2023-11-19T06:35:03;0.98;;;0.63;;
53654;SDS011;39558;52.028;8.536;2023-11-19T06:37:29;1.48;;;0.68;;
53654;SDS011;39558;52.028;8.536;2023-11-19T06:39:55;1.27;;;0.70;;
53654;SDS011;39558;52.028;8.536;2023-11-19T06:42:21;1.52;;;0.70;;
53654;SDS011;39558;52.028;8.536;2023-11-19T06:44:47;1.30;;;0.70;;
53654;SDS011;39558;52.028;8.536;2023-11-19T06:47:13;1.63;;;0.80;;
53654;SDS011;39558;52.028;8.536;2023-11-19T06:49:39;0.93;;;0.65;;
53654;SDS011;39558;52.028;8.536;2023-11-19T06:52:05;1.10;;;0.55;;
53654;SDS011;39558;52.028;8.536;2023-11-19T06:54:31;1.88;;;0.73;;
53654;SDS011;39558;52.028;8.536;2023-11-19T06:56:57;3.25;;;0.95;;
53654;SDS011;39558;52.028;8.536;2023-11-19T06:59:23;2.42;;;0.70;;
53654;SDS011;39558;52.028;8.536;2023-11-19T07:01:49;1.27;;;0.65;;
53654;SDS011;39558;52.028;8.536;2023-11-19T07:04:15;1.02;;;0.60;;
53654;SDS011;39558;52.028;8.536;2023-11-19T07:06:40;1.40;;;0.70;;
53654;SDS011;39558;52.028;8.536;2023-11-19T07:09:06;1.10;;;0.70;;
53654;SDS011;39558;52.028;8.536;2023-11-19T07:11:39;2.17;;;0.70;;
53654;SDS011;39558;52.028;8.536;2023-11-19T07:14:05;1.30;;;0.65;;
53654;SDS011;39558;52.028;8.536;2023-11-19T07:16:31;1.65;;;0.80;;
53654;SDS011;39558;52.028;8.536;2023-11-19T07:18:59;2.17;;;0.80;;
53654;SDS011;39558;52.028;8.536;2023-11-19T07:21:25;0.90;;;0.55;;
53654;SDS011;39558;52.028;8.536;2023-11-19T07:23:53;0.88;;;0.60;;
53654;SDS011;39558;52.028;8.536;2023-11-19T07:26:19;1.92;;;0.52;;
53654;SDS011;39558;52.028;8.536;2023-11-19T07:28:44;1.55;;;0.65;;
53654;SDS011;39558;52.028;8.536;2023-11-19T07:31:10;1.17;;;0.70;;
53654;SDS011;39558;52.028;8.536;2023-11-19T07:33:36;1.27;;;0.50;;
53654;SDS011;39558;52.028;8.536;2023-11-19T07:36:03;1.15;;;0.60;;
53654;SDS011;39558;52.028;8.536;2023-11-19T07:38:29;1.48;;;0.82;;
53654;SDS011;39558;52.028;8.536;2023-11-19T07:40:54;0.98;;;0.30;;
53654;SDS011;39558;52.028;8.536;2023-11-19T07:43:20;0.98;;;0.60;;
53654;SDS011;39558;52.028;8.536;2023-11-19T07:45:46;1.65;;;0.60;;
53654;SDS011;39558;52.028;8.536;2023-11-19T07:48:12;1.15;;;0.60;;
53654;SDS011;39558;52.028;8.536;2023-11-19T07:50:39;0.95;;;0.50;;
53654;SDS011;39558;52.028;8.536;2023-11-19T07:53:06;1.20;;;0.60;;
53654;SDS011;39558;52.028;8.536;2023-11-19T07:55:32;1.50;;;0.60;;
53654;SDS011;39558;52.028;8.536;2023-11-19T07:57:58;0.80;;;0.47;;
53654;SDS011;39558;52.028;8.536;2023-11-19T08:00:24;1.35;;;0.52;;
53654;SDS011;39558;52.028;8.536;2023-11-19T08:02:50;1.05;;;0.52;;
53654;SDS011;39558;52.028;8.536;2023-11-19T08:05:16;0.70;;;0.60;;
53654;SDS011;39558;52.028;8.536;2023-11-19T08:07:42;1.80;;;0.80;;
53654;SDS011;39558;52.028;8.536;2023-11-19T08:10:08;0.60;;;0.50;;
53654;SDS011;39558;52.028;8.536;2023-11-19T08:12:37;0.63;;;0.50;;
53654;SDS011;39558;52.028;8.536;2023-11-19T08:15:03;2.00;;;0.68;;
53654;SDS011;39558;52.028;8.536;2023-11-19T08:17:29;1.35;;;0.68;;
53654;SDS011;39558;52.028;8.536;2023-11-19T08:19:56;0.98;;;0.50;;
53654;SDS011;39558;52.028;8.536;2023-11-19T08:22:22;0.90;;;0.40;;
53654;SDS011;39558;52.028;8.536;2023-11-19T08:24:48;1.63;;;0.60;;
53654;SDS011;39558;52.028;8.536;2023-11-19T08:27:14;1.30;;;0.50;;
53654;SDS011;39558;52.028;8.536;2023-11-19T08:29:40;0.98;;;0.55;;
53654;SDS011;39558;52.028;8.536;2023-11-19T08:32:06;1.48;;;0.75;;
53654;SDS011;39558;52.028;8.536;2023-11-19T08:34:32;0.90;;;0.45;;
53654;SDS011;39558;52.028;8.536;2023-11-19T08:36:59;1.27;;;0.80;;
53654;SDS011;39558;52.028;8.536;2023-11-19T08:39:25;0.95;;;0.45;;
53654;SDS011;39558;52.028;8.536;2023-11-19T08:41:51;0.88;;;0.40;;
53654;SDS011;39558;52.028;8.536;2023-11-19T08:44:17;2.05;;;0.88;;
53654;SDS011;39558;52.028;8.536;2023-11-19T08:46:48;1.45;;;0.60;;
53654;SDS011;39558;52.028;8.536;2023-11-19T08:49:14;1.10;;;0.60;;
53654;SDS011;39558;52.028;8.536;2023-11-19T08:51:40;0.95;;;0.50;;
53654;SDS011;39558;52.028;8.536;2023-11-19T08:54:06;1.42;;;0.50;;
53654;SDS011;39558;52.028;8.536;2023-11-19T08:56:32;1.17;;;0.50;;
53654;SDS011;39558;52.028;8.536;2023-11-19T08:59:00;1.30;;;0.75;;
53654;SDS011;39558;52.028;8.536;2023-11-19T09:01:26;1.25;;;0.52;;
53654;SDS011;39558;52.028;8.536;2023-11-19T09:03:52;1.40;;;0.40;;
53654;SDS011;39558;52.028;8.536;2023-11-19T09:06:17;1.23;;;0.50;;
53654;SDS011;39558;52.028;8.536;2023-11-19T09:08:43;1.10;;;0.60;;
53654;SDS011;39558;52.028;8.536;2023-11-19T09:11:10;0.85;;;0.55;;
53654;SDS011;39558;52.028;8.536;2023-11-19T09:13:36;0.95;;;0.50;;
53654;SDS011;39558;52.028;8.536;2023-11-19T09:16:02;1.63;;;0.60;;
53654;SDS011;39558;52.028;8.536;2023-11-19T09:18:29;1.80;;;0.75;;
53654;SDS011;39558;52.028;8.536;2023-11-19T09:20:54;1.00;;;0.50;;
53654;SDS011;39558;52.028;8.536;2023-11-19T09:23:20;1.10;;;0.40;;
53654;SDS011;39558;52.028;8.536;2023-11-19T09:25:46;0.82;;;0.52;;
53654;SDS011;39558;52.028;8.536;2023-11-19T09:28:12;0.98;;;0.55;;
53654;SDS011;39558;52.028;8.536;2023-11-19T09:30:39;1.30;;;0.50;;
53654;SDS011;39558;52.028;8.536;2023-11-19T09:33:05;1.20;;;0.60;;
53654;SDS011;39558;52.028;8.536;2023-11-19T09:35:31;1.40;;;0.60;;
53654;SDS011;39558;52.028;8.536;2023-11-19T09:37:57;1.10;;;0.40;;
53654;SDS011;39558;52.028;8.536;2023-11-19T09:40:24;0.90;;;0.60;;
53654;SDS011;39558;52.028;8.536;2023-11-19T09:42:49;1.38;;;0.57;;
53654;SDS011;39558;52.028;8.536;2023-11-19T09:45:16;1.15;;;0.63;;
53654;SDS011;39558;52.028;8.536;2023-11-19T09:47:43;1.08;;;0.40;;
53654;SDS011;39558;52.028;8.536;2023-11-19T09:50:10;0.82;;;0.60;;
53654;SDS011;39558;52.028;8.536;2023-11-19T09:52:39;0.60;;;0.35;;
53654;SDS011;39558;52.028;8.536;2023-11-19T09:55:05;0.88;;;0.40;;
53654;SDS011;39558;52.028;8.536;2023-11-19T09:57:32;1.48;;;0.60;;
53654;SDS011;39558;52.028;8.536;2023-11-19T09:59:58;1.05;;;0.30;;
53654;SDS011;39558;52.028;8.536;2023-11-19T10:02:24;0.95;;;0.40;;
53654;SDS011;39558;52.028;8.536;2023-11-19T10:04:50;2.47;;;0.32;;
53654;SDS011;39558;52.028;8.536;2023-11-19T10:07:16;0.68;;;0.40;;
53654;SDS011;39558;52.028;8.536;2023-11-19T10:09:42;0.95;;;0.47;;
53654;SDS011;39558;52.028;8.536;2023-11-19T10:12:08;0.60;;;0.30;;
53654;SDS011;39558;52.028;8.536;2023-11-19T10:14:34;1.17;;;0.47;;
53654;SDS011;39558;52.028;8.536;2023-11-19T10:17:02;2.40;;;0.70;;
53654;SDS011;39558;52.028;8.536;2023-11-19T10:19:31;0.98;;;0.45;;
53654;SDS011;39558;52.028;8.536;2023-11-19T10:21:57;0.77;;;0.40;;
53654;SDS011;39558;52.028;8.536;2023-11-19T10:24:33;1.13;;;0.60;;
53654;SDS011;39558;52.028;8.536;2023-11-19T10:26:59;0.82;;;0.40;;
53654;SDS011;39558;52.028;8.536;2023-11-19T10:29:27;0.35;;;0.30;;
53654;SDS011;39558;52.028;8.536;2023-11-19T10:31:58;0.77;;;0.32;;
53654;SDS011;39558;52.028;8.536;2023-11-19T10:34:27;0.93;;;0.40;;
53654;SDS011;39558;52.028;8.536;2023-11-19T10:39:20;1.42;;;0.50;;
53654;SDS011;39558;52.028;8.536;2023-11-19T10:41:46;1.35;;;0.47;;
53654;SDS011;39558;52.028;8.536;2023-11-19T10:44:12;0.40;;;0.30;;
53654;SDS011;39558;52.028;8.536;2023-11-19T10:46:38;0.47;;;0.20;;
53654;SDS011;39558;52.028;8.536;2023-11-19T10:49:05;0.80;;;0.40;;
53654;SDS011;39558;52.028;8.536;2023-11-19T10:51:31;0.88;;;0.30;;
53654;SDS011;39558;52.028;8.536;2023-11-19T10:53:58;1.20;;;0.50;;
53654;SDS011;39558;52.028;8.536;2023-11-19T10:56:26;3.20;;;0.47;;
53654;SDS011;39558;52.028;8.536;2023-11-19T10:58:54;0.90;;;0.30;;
53654;SDS011;39558;52.028;8.536;2023-11-19T11:01:20;1.27;;;0.30;;
53654;SDS011;39558;52.028;8.536;2023-11-19T11:03:48;0.77;;;0.50;;
53654;SDS011;39558;52.028;8.536;2023-11-19T11:06:18;0.63;;;0.40;;
53654;SDS011;39558;52.028;8.536;2023-11-19T11:08:44;0.82;;;0.50;;
53654;SDS011;39558;52.028;8.536;2023-11-19T11:11:11;0.70;;;0.40;;
53654;SDS011;39558;52.028;8.536;2023-11-19T11:13:39;1.13;;;0.30;;
53654;SDS011;39558;52.028;8.536;2023-11-19T11:16:08;1.10;;;0.40;;
53654;SDS011;39558;52.028;8.536;2023-11-19T11:18:34;0.90;;;0.40;;
53654;SDS011;39558;52.028;8.536;2023-11-19T11:21:05;1.33;;;0.40;;
53654;SDS011;39558;52.028;8.536;2023-11-19T11:26:32;1.40;;;0.38;;
53654;SDS011;39558;52.028;8.536;2023-11-19T11:29:02;1.33;;;0.32;;
53654;SDS011;39558;52.028;8.536;2023-11-19T11:34:21;1.15;;;0.30;;
53654;SDS011;39558;52.028;8.536;2023-11-19T11:36:55;1.45;;;0.47;;
53654;SDS011;39558;52.028;8.536;2023-11-19T11:39:24;2.20;;;0.63;;
53654;SDS011;39558;52.028;8.536;2023-11-19T11:47:23;1.70;;;0.60;;
53654;SDS011;39558;52.028;8.536;2023-11-19T11:49:49;1.73;;;0.43;;
53654;SDS011;39558;52.028;8.536;2023-11-19T11:52:16;1.58;;;0.40;;
53654;SDS011;39558;52.028;8.536;2023-11-19T11:54:42;0.47;;;0.20;;
53654;SDS011;39558;52.028;8.536;2023-11-19T11:57:09;0.88;;;0.38;;
53654;SDS011;39558;52.028;8.536;2023-11-19T12:02:08;2.15;;;0.45;;
53654;SDS011;39558;52.028;8.536;2023-11-19T12:04:37;2.58;;;0.40;;
53654;SDS011;39558;52.028;8.536;2023-11-19T12:07:13;1.83;;;0.50;;
53654;SDS011;39558;52.028;8.536;2023-11-19T12:09:42;2.20;;;0.65;;
53654;SDS011;39558;52.028;8.536;2023-11-19T12:12:22;1.23;;;0.40;;
53654;SDS011;39558;52.028;8.536;2023-11-19T12:20:07;2.25;;;1.08;;
53654;SDS011;39558;52.028;8.536;2023-11-19T12:22:37;3.00;;;0.75;;
53654;SDS011;39558;52.028;8.536;2023-11-19T12:25:03;2.03;;;0.57;;
53654;SDS011;39558;52.028;8.536;2023-11-19T12:27:30;2.67;;;0.50;;
53654;SDS011;39558;52.028;8.536;2023-11-19T12:29:56;3.03;;;0.68;;
53654;SDS011;39558;52.028;8.536;2023-11-19T12:32:22;0.93;;;0.43;;
53654;SDS011;39558;52.028;8.536;2023-11-19T12:34:47;1.05;;;0.30;;
53654;SDS011;39558;52.028;8.536;2023-11-19T12:37:13;5.45;;;0.73;;
53654;SDS011;39558;52.028;8.536;2023-11-19T12:39:40;2.25;;;0.73;;
53654;SDS011;39558;52.028;8.536;2023-11-19T12:42:06;1.80;;;0.50;;
53654;SDS011;39558;52.028;8.536;2023-11-19T12:44:32;0.98;;;0.40;;
53654;SDS011;39558;52.028;8.536;2023-11-19T12:47:08;2.97;;;0.70;;
53654;SDS011;39558;52.028;8.536;2023-11-19T12:49:36;3.35;;;0.90;;
53654;SDS011;39558;52.028;8.536;2023-11-19T12:52:02;1.55;;;0.60;;
53654;SDS011;39558;52.028;8.536;2023-11-19T12:54:35;3.60;;;0.60;;
53654;SDS011;39558;52.028;8.536;2023-11-19T12:57:01;2.05;;;0.80;;
53654;SDS011;39558;52.028;8.536;2023-11-19T12:59:27;1.25;;;0.40;;
53654;SDS011;39558;52.028;8.536;2023-11-19T13:01:59;3.38;;;0.40;;
53654;SDS011;39558;52.028;8.536;2023-11-19T13:04:27;3.72;;;0.60;;
53654;SDS011;39558;52.028;8.536;2023-11-19T13:06:55;1.92;;;0.60;;
53654;SDS011;39558;52.028;8.536;2023-11-19T13:09:24;2.25;;;0.63;;
53654;SDS011;39558;52.028;8.536;2023-11-19T13:11:50;3.08;;;0.60;;
53654;SDS011;39558;52.028;8.536;2023-11-19T13:14:17;5.32;;;0.73;;
53654;SDS011;39558;52.028;8.536;2023-11-19T13:16:43;3.80;;;0.70;;
53654;SDS011;39558;52.028;8.536;2023-11-19T13:19:13;3.60;;;0.63;;
53654;SDS011;39558;52.028;8.536;2023-11-19T13:21:39;2.53;;;0.70;;
53654;SDS011;39558;52.028;8.536;2023-11-19T13:24:06;2.15;;;0.75;;
53654;SDS011;39558;52.028;8.536;2023-11-19T13:26:32;2.72;;;0.88;;
53654;SDS011;39558;52.028;8.536;2023-11-19T13:28:58;3.33;;;0.90;;
53654;SDS011;39558;52.028;8.536;2023-11-19T13:31:24;2.40;;;0.80;;
53654;SDS011;39558;52.028;8.536;2023-11-19T13:33:51;3.00;;;0.50;;
53654;SDS011;39558;52.028;8.536;2023-11-19T13:36:17;2.85;;;0.77;;
53654;SDS011;39558;52.028;8.536;2023-11-19T13:38:43;2.05;;;0.60;;
53654;SDS011;39558;52.028;8.536;2023-11-19T13:41:09;2.17;;;0.75;;
53654;SDS011;39558;52.028;8.536;2023-11-19T13:43:36;5.43;;;1.52;;
53654;SDS011;39558;52.028;8.536;2023-11-19T13:46:02;3.78;;;1.35;;
53654;SDS011;39558;52.028;8.536;2023-11-19T13:48:28;2.72;;;1.10;;
53654;SDS011;39558;52.028;8.536;2023-11-19T13:50:55;2.63;;;0.90;;
53654;SDS011;39558;52.028;8.536;2023-11-19T13:53:21;4.32;;;1.02;;
53654;SDS011;39558;52.028;8.536;2023-11-19T13:55:48;2.90;;;0.70;;
53654;SDS011;39558;52.028;8.536;2023-11-19T13:58:14;2.60;;;0.63;;
53654;SDS011;39558;52.028;8.536;2023-11-19T14:00:40;4.13;;;0.90;;
53654;SDS011;39558;52.028;8.536;2023-11-19T14:03:07;5.00;;;0.75;;
53654;SDS011;39558;52.028;8.536;2023-11-19T14:05:34;3.35;;;0.73;;
53654;SDS011;39558;52.028;8.536;2023-11-19T14:08:00;2.38;;;0.57;;
53654;SDS011;39558;52.028;8.536;2023-11-19T14:10:26;4.65;;;1.35;;
53654;SDS011;39558;52.028;8.536;2023-11-19T14:12:52;3.70;;;1.05;;
53654;SDS011;39558;52.028;8.536;2023-11-19T14:15:18;5.30;;;1.30;;
53654;SDS011;39558;52.028;8.536;2023-11-19T14:17:44;3.67;;;0.80;;
53654;SDS011;39558;52.028;8.536;2023-11-19T14:20:10;3.35;;;0.90;;
53654;SDS011;39558;52.028;8.536;2023-11-19T14:22:40;2.13;;;0.57;;
53654;SDS011;39558;52.028;8.536;2023-11-19T14:25:07;3.10;;;0.70;;
53654;SDS011;39558;52.028;8.536;2023-11-19T14:27:35;3.92;;;0.93;;
53654;SDS011;39558;52.028;8.536;2023-11-19T14:30:03;5.38;;;0.90;;
53654;SDS011;39558;52.028;8.536;2023-11-19T14:32:29;4.45;;;0.90;;
53654;SDS011;39558;52.028;8.536;2023-11-19T14:34:55;2.05;;;0.77;;
53654;SDS011;39558;52.028;8.536;2023-11-19T14:37:20;3.28;;;0.88;;
53654;SDS011;39558;52.028;8.536;2023-11-19T14:39:46;2.05;;;0.93;;
53654;SDS011;39558;52.028;8.536;2023-11-19T14:42:12;2.90;;;0.75;;
53654;SDS011;39558;52.028;8.536;2023-11-19T14:44:39;3.83;;;0.90;;
53654;SDS011;39558;52.028;8.536;2023-11-19T14:47:05;3.97;;;1.05;;
53654;SDS011;39558;52.028;8.536;2023-11-19T14:49:31;6.50;;;1.00;;
53654;SDS011;39558;52.028;8.536;2023-11-19T14:51:57;4.05;;;1.10;;
53654;SDS011;39558;52.028;8.536;2023-11-19T14:54:22;5.38;;;1.40;;
53654;SDS011;39558;52.028;8.536;2023-11-19T14:56:49;4.65;;;1.00;;
53654;SDS011;39558;52.028;8.536;2023-11-19T14:59:16;3.15;;;0.95;;
53654;SDS011;39558;52.028;8.536;2023-11-19T15:01:44;3.70;;;0.80;;
53654;SDS011;39558;52.028;8.536;2023-11-19T15:04:10;3.60;;;1.00;;
53654;SDS011;39558;52.028;8.536;2023-11-19T15:06:36;4.72;;;1.10;;
53654;SDS011;39558;52.028;8.536;2023-11-19T15:09:03;3.53;;;1.00;;
53654;SDS011;39558;52.028;8.536;2023-11-19T15:11:30;6.03;;;1.08;;
53654;SDS011;39558;52.028;8.536;2023-11-19T15:13:56;4.75;;;1.38;;